createdAt,value
2023-07-11T00:02:50.124Z,100505.78
2023-07-11T00:12:54.080Z,100497.06
2023-07-11T00:22:59.136Z,100503.97
2023-07-11T00:33:02.868Z,100497.03
2023-07-11T00:43:12.592Z,100491.06
2023-07-11T00:53:17.527Z,100483.91
2023-07-11T01:03:25.167Z,100480.44
2023-07-11T01:13:29.113Z,100491.69
2023-07-11T01:23:35.433Z,100476.25
2023-07-11T01:33:39.294Z,100470.19
2023-07-11T01:43:44.625Z,100460.88
2023-07-11T01:53:48.642Z,100462.41
2023-07-11T02:03:53.949Z,100458.06
2023-07-11T02:13:57.703Z,100458.06
2023-07-11T02:24:02.770Z,100451.78
2023-07-11T02:34:07.104Z,100446.59
2023-07-11T02:44:12.574Z,100450.66
2023-07-11T02:54:16.618Z,100437.66
2023-07-11T03:04:21.627Z,100441.16
2023-07-11T03:14:25.406Z,100421.47
2023-07-11T03:24:30.405Z,100429.97
2023-07-11T03:34:38.033Z,100425.28
2023-07-11T03:44:46.570Z,100422.09
2023-07-11T03:54:53.668Z,100416.84
2023-07-11T04:04:58.640Z,100407.31
2023-07-11T04:15:03.012Z,100398.31
2023-07-11T04:25:08.894Z,100387.97
2023-07-11T04:35:15.802Z,100397.59
2023-07-11T04:45:20.885Z,100397.03
2023-07-11T04:55:24.556Z,100386.03
2023-07-11T05:05:29.899Z,100374.25
2023-07-11T05:15:33.682Z,100381.22
2023-07-11T05:25:39.643Z,100375.34
2023-07-11T05:35:58.927Z,100366.84
2023-07-11T05:46:04.395Z,100354.00
2023-07-11T05:56:09.076Z,100342.72
2023-07-11T06:06:16.177Z,100347.88
2023-07-11T06:16:22.384Z,100321.94
2023-07-11T06:26:27.690Z,100315.59
2023-07-11T06:36:31.427Z,100312.59
2023-07-11T06:46:36.486Z,100304.66
2023-07-11T06:56:40.158Z,100293.06
2023-07-11T07:06:45.905Z,100270.81
2023-07-11T07:16:49.730Z,100277.38
2023-07-11T07:26:55.110Z,100264.25
2023-07-11T07:36:59.555Z,100244.66
2023-07-11T07:47:04.875Z,100231.00
2023-07-11T07:57:08.730Z,100224.16
2023-07-11T08:07:14.582Z,100208.75
2023-07-11T08:17:18.278Z,100192.31
2023-07-11T08:27:23.555Z,100182.75
2023-07-11T08:37:27.357Z,100155.63
2023-07-11T08:47:38.824Z,100142.97
2023-07-11T08:57:47.114Z,100136.94
2023-07-11T09:07:54.093Z,100121.38
2023-07-11T09:18:09.646Z,100107.84
2023-07-11T09:28:20.751Z,100088.88
2023-07-11T09:38:31.881Z,100076.38
2023-07-11T09:48:37.758Z,100066.75
2023-07-11T09:58:42.669Z,100062.44
2023-07-11T10:08:50.715Z,100029.69
2023-07-11T10:18:54.950Z,100034.25
2023-07-11T10:29:08.833Z,100010.88
2023-07-11T10:39:26.796Z,99994.81
2023-07-11T10:49:39.522Z,99979.38
2023-07-11T10:59:43.349Z,99978.78
2023-07-11T11:09:57.447Z,99936.22
2023-07-11T11:20:14.431Z,99927.97
2023-07-11T11:30:34.497Z,99928.91
2023-07-11T11:40:41.996Z,99916.88
2023-07-11T12:00:57.719Z,99884.06
2023-07-11T12:11:32.742Z,99867.16
2023-07-11T12:21:44.224Z,99860.66
2023-07-11T12:32:30.428Z,99832.72
2023-07-11T12:42:52.698Z,99811.91
2023-07-11T12:53:04.677Z,99816.81
2023-07-11T13:03:25.071Z,99796.88
2023-07-11T13:13:32.869Z,99784.25
2023-07-11T13:23:39.874Z,99759.88
2023-07-11T13:33:44.881Z,99768.31
2023-07-11T13:43:49.175Z,99754.19
2023-07-11T13:53:58.858Z,99737.63
2023-07-11T14:04:03.609Z,99724.19
2023-07-11T14:14:24.937Z,99706.22
2023-07-11T14:24:38.761Z,99685.09
2023-07-11T14:34:44.096Z,99682.34
2023-07-11T14:44:48.408Z,99689.09
2023-07-11T15:25:32.432Z,99646.28
2023-07-11T15:35:37.438Z,99630.75
2023-07-11T15:45:41.100Z,99611.75
2023-07-11T15:55:46.865Z,99602.88
2023-07-11T16:05:52.915Z,99590.66
2023-07-11T16:16:00.421Z,99602.41
2023-07-11T16:26:04.505Z,99598.66
2023-07-11T16:36:16.408Z,99603.09
2023-07-11T16:46:21.079Z,99583.06
2023-07-11T16:56:26.273Z,99581.75
2023-07-11T17:06:33.321Z,99572.03
2023-07-11T17:16:42.190Z,99565.25
2023-07-11T17:26:45.971Z,99570.66
2023-07-11T17:36:51.709Z,99562.13
2023-07-11T17:47:30.479Z,99534.03
2023-07-11T17:57:23.885Z,99479.88
2023-07-11T18:07:34.266Z,99452.03
2023-07-11T18:17:40.048Z,99494.84
2023-07-11T18:27:44.057Z,99487.84
2023-07-11T18:37:49.960Z,99386.25
2023-07-11T18:47:56.011Z,99353.13
2023-07-11T18:58:03.277Z,99404.59
2023-07-11T19:08:17.166Z,99397.50
2023-07-11T19:18:26.277Z,99366.31
2023-07-11T19:28:33.053Z,99379.56
2023-07-11T19:38:38.053Z,99397.94
2023-07-11T19:48:42.318Z,99395.25
2023-07-11T19:58:47.544Z,99424.31
2023-07-11T20:08:51.968Z,99445.84
2023-07-11T20:18:57.217Z,99414.63
2023-07-11T20:29:00.997Z,99428.16
2023-07-11T20:39:10.843Z,99450.09
2023-07-11T20:49:14.802Z,99472.44
2023-07-11T20:59:20.388Z,99487.63
2023-07-11T21:09:25.925Z,99468.47
2023-07-11T21:19:31.151Z,99485.50
2023-07-11T21:29:34.916Z,99519.91
2023-07-11T21:39:40.755Z,99530.94
2023-07-11T21:49:44.430Z,99575.75
2023-07-11T21:59:55.227Z,99577.38
2023-07-11T22:09:58.922Z,99691.88
2023-07-11T22:20:04.571Z,99730.31
2023-07-11T22:30:24.660Z,99763.06
2023-07-11T22:40:34.743Z,99761.97
2023-07-11T22:50:48.402Z,99746.00
2023-07-11T23:00:55.317Z,99791.34
2023-07-11T23:11:00.207Z,99837.03
2023-07-11T23:21:05.495Z,99783.34
2023-07-11T23:31:11.311Z,99727.09
2023-07-11T23:41:16.973Z,99719.63
2023-07-11T23:51:22.640Z,99720.72
